Time;durP1;ratioP1;P1;durP2;ratioP2;P2;SDS_P1;SDS_P2;PMS_P1;PMS_P2;Temp;Humidity;BMP_temperature;BMP_pressure;BME280_temperature;BME280_humidity;BME280_pressure;Samples;Min_cycle;Max_cycle;Signal;HPM_P1;HPM_P2
2023/08/22 00:01:28;;;;;;;4.25;3.15;;;20.60;81.20;;;;;;5925941;23;20186;-86
2023/08/22 00:03:56;;;;;;;3.20;2.90;;;20.50;81.00;;;;;;5926706;23;20520;-85
2023/08/22 00:06:29;;;;;;;3.22;2.92;;;20.50;81.30;;;;;;5898657;23;20157;-85
2023/08/22 00:09:01;;;;;;;3.28;2.88;;;20.50;81.30;;;;;;5832356;23;20238;-85
2023/08/22 00:11:27;;;;;;;3.47;3.10;;;20.50;81.10;;;;;;6007760;23;20158;-86
2023/08/22 00:13:55;;;;;;;3.67;3.00;;;20.50;81.40;;;;;;5985089;23;20206;-85
2023/08/22 00:16:26;;;;;;;3.30;3.00;;;20.50;81.20;;;;;;6008656;23;20188;-86
2023/08/22 00:18:52;;;;;;;3.20;2.83;;;20.50;81.20;;;;;;5985297;23;20159;-86
2023/08/22 00:21:17;;;;;;;3.10;2.80;;;20.50;81.20;;;;;;6008612;23;20214;-85
2023/08/22 00:23:50;;;;;;;3.30;3.00;;;20.50;81.10;;;;;;6009787;23;20162;-84
2023/08/22 00:26:26;;;;;;;4.20;3.20;;;20.50;81.20;;;;;;6037720;23;20150;-86
2023/08/22 00:29:03;;;;;;;3.17;2.88;;;20.50;81.30;;;;;;6037633;23;20194;-87
2023/08/22 00:31:32;;;;;;;3.20;2.90;;;20.50;81.30;;;;;;6046699;23;20605;-86
2023/08/22 00:34:01;;;;;;;3.05;2.78;;;20.50;81.60;;;;;;6095004;23;20160;-86
2023/08/22 00:36:37;;;;;;;3.30;3.00;;;20.50;81.30;;;;;;6094827;23;20756;-85
2023/08/22 00:39:05;;;;;;;3.40;3.10;;;20.50;81.30;;;;;;6041779;23;20157;-85
2023/08/22 00:41:40;;;;;;;3.55;3.25;;;20.50;81.40;;;;;;6046179;23;20212;-86
2023/08/22 00:44:10;;;;;;;3.28;2.97;;;20.50;81.40;;;;;;6079328;23;20158;-86
2023/08/22 00:46:39;;;;;;;3.47;3.17;;;20.50;81.40;;;;;;5957293;23;20894;-86
2023/08/22 00:49:08;;;;;;;3.45;2.90;;;20.50;81.50;;;;;;5925536;24;20220;-86
2023/08/22 00:51:37;;;;;;;3.08;2.80;;;20.50;81.50;;;;;;5849236;24;20194;-86
2023/08/22 00:54:06;;;;;;;3.50;3.20;;;20.50;81.40;;;;;;5871293;24;20271;-85
2023/08/22 00:56:41;;;;;;;3.33;3.03;;;20.50;81.50;;;;;;5871993;24;20181;-86
2023/08/22 00:59:10;;;;;;;3.08;2.78;;;20.50;81.70;;;;;;5871014;24;20165;-86
2023/08/22 01:01:39;;;;;;;3.33;3.03;;;20.50;81.70;;;;;;5916399;24;20162;-86
2023/08/22 01:04:08;;;;;;;4.07;3.05;;;20.50;81.50;;;;;;5915938;24;20169;-86
2023/08/22 01:06:59;;;;;;;3.25;2.95;;;20.50;81.70;;;;;;5870663;24;20515;-86
2023/08/22 01:09:45;;;;;;;3.40;3.10;;;20.40;82.70;;;;;;5908538;24;20492;-86
2023/08/22 01:12:24;;;;;;;2.85;2.65;;;20.40;81.90;;;;;;6098083;23;20151;-85
2023/08/22 01:14:59;;;;;;;3.20;2.90;;;20.40;81.70;;;;;;6076616;23;20199;-86
2023/08/22 01:17:27;;;;;;;3.20;2.90;;;20.40;81.90;;;;;;6099303;23;20191;-86
2023/08/22 01:19:56;;;;;;;3.42;3.00;;;20.50;81.80;;;;;;6074994;23;20159;-87
2023/08/22 01:22:40;;;;;;;3.45;3.15;;;20.40;82.30;;;;;;6053520;23;20615;-85
2023/08/22 01:25:10;;;;;;;3.08;2.78;;;20.40;82.20;;;;;;6050109;23;20235;-85
2023/08/22 01:27:49;;;;;;;3.33;2.97;;;20.40;82.60;;;;;;6097717;23;20159;-86
2023/08/22 01:30:41;;;;;;;3.35;3.05;;;20.40;82.90;;;;;;6065725;23;20920;-86
2023/08/22 01:33:21;;;;;;;3.38;3.08;;;20.40;82.10;;;;;;6041606;23;20157;-85
2023/08/22 01:35:54;;;;;;;3.15;2.88;;;20.40;82.30;;;;;;6020462;23;20161;-86
2023/08/22 01:38:27;;;;;;;3.20;2.90;;;20.40;82.10;;;;;;6041485;23;20557;-85
2023/08/22 01:40:55;;;;;;;3.20;2.90;;;20.30;82.20;;;;;;6018434;23;20673;-86
2023/08/22 01:43:24;;;;;;;3.63;3.10;;;20.40;82.70;;;;;;6041798;23;20150;-86
2023/08/22 01:45:50;;;;;;;3.65;3.10;;;20.40;82.60;;;;;;6041605;23;20165;-85
2023/08/22 01:48:22;;;;;;;3.42;3.13;;;20.30;82.30;;;;;;6041593;23;20274;-85
2023/08/22 01:50:50;;;;;;;3.58;2.90;;;20.40;82.30;;;;;;6041578;23;20153;-85
2023/08/22 01:53:17;;;;;;;3.70;3.40;;;20.50;82.30;;;;;;6074490;23;20148;-86
2023/08/22 01:55:47;;;;;;;4.00;3.00;;;20.40;82.30;;;;;;6128244;23;20730;-85
2023/08/22 01:58:15;;;;;;;3.25;2.95;;;20.40;82.50;;;;;;6128315;23;20151;-86
2023/08/22 02:00:47;;;;;;;3.17;2.88;;;20.40;82.50;;;;;;6170040;23;20150;-87
2023/08/22 02:03:20;;;;;;;3.28;2.97;;;20.40;82.30;;;;;;6185190;23;20142;-86
2023/08/22 02:05:49;;;;;;;3.58;2.92;;;20.40;82.30;;;;;;6087230;23;20159;-86
2023/08/22 02:08:18;;;;;;;3.40;3.03;;;20.40;82.50;;;;;;5985048;23;20701;-85
2023/08/22 02:10:51;;;;;;;3.42;3.00;;;20.40;82.60;;;;;;6004225;23;20245;-85
2023/08/22 02:13:20;;;;;;;3.20;2.90;;;20.40;82.30;;;;;;6029539;23;20202;-85
2023/08/22 02:15:49;;;;;;;3.55;3.25;;;20.40;82.50;;;;;;6123258;23;20625;-87
2023/08/22 02:18:17;;;;;;;3.08;2.80;;;20.40;82.70;;;;;;6098916;23;20159;-86
2023/08/22 02:20:57;;;;;;;3.53;3.00;;;20.40;82.70;;;;;;6082323;23;20156;-85
2023/08/22 02:23:26;;;;;;;4.03;3.08;;;20.30;83.00;;;;;;6055310;23;20153;-86
2023/08/22 02:26:00;;;;;;;3.38;3.08;;;20.40;83.20;;;;;;6056129;23;20172;-86
2023/08/22 02:28:28;;;;;;;3.20;2.90;;;20.30;83.10;;;;;;6032254;23;20604;-86
2023/08/22 02:30:58;;;;;;;3.67;3.00;;;20.30;83.00;;;;;;6101953;23;20188;-86
2023/08/22 02:33:29;;;;;;;3.42;3.03;;;20.40;83.20;;;;;;6041295;23;20149;-86
2023/08/22 02:35:57;;;;;;;3.75;3.10;;;20.40;83.10;;;;;;6021789;23;20188;-86
2023/08/22 02:38:27;;;;;;;3.40;3.10;;;20.30;82.90;;;;;;6093680;23;20148;-86
2023/08/22 02:41:00;;;;;;;3.40;3.10;;;20.30;83.10;;;;;;6070598;23;20134;-86
2023/08/22 02:43:30;;;;;;;2.90;2.70;;;20.30;83.00;;;;;;6069700;23;20548;-86
2023/08/22 02:45:59;;;;;;;3.20;2.90;;;20.20;83.10;;;;;;5989853;23;20165;-86
2023/08/22 02:48:31;;;;;;;3.60;3.30;;;20.40;83.20;;;;;;5990183;23;20157;-86
2023/08/22 02:51:00;;;;;;;3.53;2.90;;;20.30;83.50;;;;;;5989078;23;20164;-85
2023/08/22 02:53:25;;;;;;;3.30;3.00;;;20.30;83.00;;;;;;6024256;23;20152;-85
2023/08/22 02:55:59;;;;;;;3.38;3.08;;;20.30;83.20;;;;;;6069855;23;20160;-85
2023/08/22 02:58:27;;;;;;;3.70;2.90;;;20.30;83.20;;;;;;6070114;23;20149;-86
2023/08/22 03:00:56;;;;;;;3.58;3.13;;;20.30;83.00;;;;;;6070009;23;20180;-86
2023/08/22 03:03:31;;;;;;;4.05;3.20;;;20.30;83.40;;;;;;6036274;23;20150;-86
2023/08/22 03:05:58;;;;;;;3.78;3.00;;;20.30;83.40;;;;;;6031262;23;20240;-85
2023/08/22 03:08:27;;;;;;;3.40;3.03;;;20.30;83.60;;;;;;6007364;23;20180;-85
2023/08/22 03:11:00;;;;;;;3.80;3.08;;;20.30;83.80;;;;;;6023081;23;20169;-85
2023/08/22 03:13:28;;;;;;;3.10;2.80;;;20.30;83.40;;;;;;6035681;23;20230;-86
2023/08/22 03:15:58;;;;;;;3.50;3.20;;;20.30;83.30;;;;;;6057990;23;20166;-85
2023/08/22 03:18:25;;;;;;;3.53;3.22;;;20.30;83.40;;;;;;6088481;23;20232;-86
2023/08/22 03:21:06;;;;;;;3.28;2.97;;;20.30;83.20;;;;;;6088847;23;20153;-86
2023/08/22 03:23:35;;;;;;;3.42;2.88;;;20.30;83.20;;;;;;6064569;23;20172;-85
2023/08/22 03:26:10;;;;;;;3.88;3.20;;;20.30;83.60;;;;;;6088443;23;20165;-85
2023/08/22 03:28:42;;;;;;;3.65;3.35;;;20.30;83.70;;;;;;6064138;23;20181;-85
2023/08/22 03:31:10;;;;;;;3.67;3.08;;;20.30;83.70;;;;;;6011866;23;20161;-85
2023/08/22 03:33:42;;;;;;;4.00;3.20;;;20.30;83.60;;;;;;5956931;24;20159;-85
2023/08/22 03:36:08;;;;;;;3.92;3.10;;;20.30;84.00;;;;;;5936141;24;20199;-85
2023/08/22 03:38:40;;;;;;;3.50;3.20;;;20.30;83.90;;;;;;5935385;24;20647;-85
2023/08/22 03:41:06;;;;;;;3.85;3.08;;;20.30;83.90;;;;;;5975560;23;20154;-85
2023/08/22 03:43:55;;;;;;;3.90;3.03;;;20.30;83.60;;;;;;5962669;23;20150;-86
2023/08/22 03:46:24;;;;;;;3.00;2.70;;;20.30;83.50;;;;;;5912134;24;20971;-86
2023/08/22 03:48:56;;;;;;;3.17;2.88;;;20.30;84.10;;;;;;6009508;23;20172;-84
2023/08/22 03:51:30;;;;;;;3.17;2.88;;;20.30;83.90;;;;;;5921254;24;20169;-85
2023/08/22 03:54:02;;;;;;;3.10;2.80;;;20.30;84.00;;;;;;5953353;24;20219;-85
2023/08/22 03:56:41;;;;;;;;;;;;;;;;;;;;;
2023/08/22 03:59:17;;;;;;;3.65;3.05;;;20.30;84.00;;;;;;5923958;24;20296;-85
2023/08/22 04:01:55;;;;;;;3.00;2.70;;;20.30;83.80;;;;;;5916385;24;20185;-85
2023/08/22 04:04:24;;;;;;;3.60;3.20;;;20.30;83.70;;;;;;5933697;24;20164;-86
2023/08/22 04:06:58;;;;;;;3.67;2.90;;;20.30;84.10;;;;;;5853379;24;20164;-85
2023/08/22 04:09:32;;;;;;;3.22;2.92;;;20.30;83.90;;;;;;5921286;24;20211;-85
2023/08/22 04:12:10;;;;;;;3.60;2.90;;;20.30;83.80;;;;;;5875873;23;20167;-85
2023/08/22 04:14:36;;;;;;;3.58;3.28;;;20.20;83.70;;;;;;5874731;23;20201;-85
2023/08/22 04:17:05;;;;;;;3.40;3.00;;;20.30;84.00;;;;;;5875834;24;20196;-85
2023/08/22 04:19:34;;;;;;;3.05;2.75;;;20.20;84.10;;;;;;5961574;23;20211;-84
2023/08/22 04:22:30;;;;;;;3.92;3.03;;;20.30;83.90;;;;;;6022905;23;20168;-85
2023/08/22 04:24:59;;;;;;;4.28;3.42;;;20.20;83.70;;;;;;6078942;23;20179;-85
2023/08/22 04:27:28;;;;;;;3.92;3.53;;;20.30;83.80;;;;;;6082062;23;20151;-86
2023/08/22 04:29:59;;;;;;;4.10;3.03;;;20.30;84.10;;;;;;6104851;23;20155;-85
2023/08/22 04:32:28;;;;;;;3.33;3.00;;;20.20;84.10;;;;;;6057158;23;20163;-86
2023/08/22 04:34:57;;;;;;;3.20;2.90;;;20.20;84.20;;;;;;6105336;23;20152;-85
2023/08/22 04:37:27;;;;;;;3.80;3.03;;;20.30;84.30;;;;;;6153047;23;20188;-86
2023/08/22 04:39:56;;;;;;;3.22;2.70;;;20.20;84.40;;;;;;6104227;23;20190;-86
2023/08/22 04:42:24;;;;;;;3.30;2.90;;;20.20;84.40;;;;;;6065761;23;20248;-86
2023/08/22 04:44:50;;;;;;;3.33;3.03;;;20.20;84.00;;;;;;6042262;23;20150;-86
2023/08/22 04:47:16;;;;;;;3.40;3.00;;;20.20;83.80;;;;;;6018372;23;20570;-86
2023/08/22 04:49:48;;;;;;;3.33;3.03;;;20.20;84.00;;;;;;6066137;23;20906;-85
2023/08/22 04:52:21;;;;;;;3.70;3.20;;;20.20;85.00;;;;;;6018326;23;20181;-85
2023/08/22 04:54:57;;;;;;;3.20;2.90;;;20.30;84.20;;;;;;5995745;23;20240;-86
2023/08/22 04:57:33;;;;;;;3.53;3.00;;;20.20;84.00;;;;;;5985713;23;20265;-85
2023/08/22 05:00:09;;;;;;;3.50;3.20;;;20.20;84.00;;;;;;6008930;23;20885;-85
2023/08/22 05:02:38;;;;;;;3.42;3.13;;;20.20;84.10;;;;;;6013514;23;20542;-86
2023/08/22 05:05:11;;;;;;;3.35;3.05;;;20.20;83.90;;;;;;5985883;23;20234;-85
2023/08/22 05:07:37;;;;;;;3.25;2.95;;;20.20;84.10;;;;;;5983882;23;20163;-85
2023/08/22 05:10:06;;;;;;;3.75;3.10;;;20.30;84.30;;;;;;6008864;23;20263;-86
2023/08/22 05:12:44;;;;;;;3.20;2.90;;;20.20;84.20;;;;;;6045590;23;20262;-85
2023/08/22 05:15:12;;;;;;;3.88;3.40;;;20.20;84.10;;;;;;6008568;23;20175;-84
2023/08/22 05:17:53;;;;;;;3.70;3.03;;;20.20;84.00;;;;;;5957107;24;20592;-85
2023/08/22 05:20:25;;;;;;;3.25;2.95;;;20.30;84.20;;;;;;5959100;24;20162;-85
2023/08/22 05:22:53;;;;;;;3.25;2.95;;;20.20;84.20;;;;;;5952378;24;20596;-86
2023/08/22 05:25:22;;;;;;;3.50;3.00;;;20.20;84.10;;;;;;5952853;24;20149;-85
2023/08/22 05:27:54;;;;;;;3.35;3.05;;;20.20;84.10;;;;;;5957030;24;20169;-85
2023/08/22 05:30:21;;;;;;;3.65;3.22;;;20.20;84.00;;;;;;5957412;24;20245;-86
2023/08/22 05:32:55;;;;;;;3.40;3.10;;;20.20;84.00;;;;;;5980599;24;20639;-86
2023/08/22 05:35:23;;;;;;;3.78;3.00;;;20.20;83.90;;;;;;5969293;23;20189;-86
2023/08/22 05:37:53;;;;;;;3.30;2.97;;;20.20;84.00;;;;;;6013765;23;20209;-86
2023/08/22 05:40:19;;;;;;;3.40;3.00;;;20.30;84.10;;;;;;6004405;23;20173;-86
2023/08/22 05:42:45;;;;;;;3.45;3.05;;;20.20;84.00;;;;;;5992928;23;20481;-86
2023/08/22 05:45:13;;;;;;;2.78;2.50;;;20.30;84.00;;;;;;6004007;23;20153;-86
2023/08/22 05:47:45;;;;;;;3.15;2.75;;;20.20;83.90;;;;;;6083278;23;20163;-86
2023/08/22 05:50:17;;;;;;;3.20;2.90;;;20.30;83.60;;;;;;6109668;23;20463;-85
2023/08/22 05:52:43;;;;;;;3.53;2.88;;;20.30;83.50;;;;;;6107900;23;20158;-87
2023/08/22 05:55:13;;;;;;;3.05;2.60;;;20.30;83.50;;;;;;6094108;23;20159;-86
2023/08/22 05:57:38;;;;;;;3.00;2.70;;;20.30;83.70;;;;;;6152231;23;20187;-85
2023/08/22 06:00:14;;;;;;;2.70;2.50;;;20.30;83.80;;;;;;6103875;23;20246;-86
2023/08/22 06:02:39;;;;;;;2.83;2.50;;;20.30;84.00;;;;;;6128746;23;20158;-87
2023/08/22 06:05:17;;;;;;;2.95;2.55;;;20.20;84.10;;;;;;6103809;23;20139;-87
2023/08/22 06:07:45;;;;;;;2.72;2.40;;;20.20;84.10;;;;;;5919756;24;20919;-86
2023/08/22 06:10:19;;;;;;;2.38;2.17;;;20.20;84.20;;;;;;6041114;23;20493;-86
2023/08/22 06:12:48;;;;;;;3.08;2.58;;;20.20;84.30;;;;;;6064898;23;20200;-85
2023/08/22 06:15:16;;;;;;;2.95;2.65;;;20.20;84.30;;;;;;6041368;23;20181;-86
2023/08/22 06:17:47;;;;;;;2.47;2.28;;;20.20;84.50;;;;;;6012573;23;20186;-86
2023/08/22 06:20:20;;;;;;;3.13;2.75;;;20.10;84.50;;;;;;6013471;23;20649;-86
2023/08/22 06:22:49;;;;;;;2.88;2.38;;;20.10;84.60;;;;;;6012516;23;20150;-87
2023/08/22 06:25:14;;;;;;;2.58;2.38;;;20.10;84.80;;;;;;6013460;23;20171;-86
2023/08/22 06:27:49;;;;;;;3.50;2.83;;;20.10;84.90;;;;;;5989252;23;20779;-86
2023/08/22 06:30:19;;;;;;;2.90;2.60;;;20.10;84.90;;;;;;6013056;23;20146;-86
2023/08/22 06:32:46;;;;;;;2.70;2.50;;;20.10;85.00;;;;;;5933028;24;20163;-87
2023/08/22 06:35:18;;;;;;;3.00;2.70;;;20.10;85.00;;;;;;5979980;23;20159;-86
2023/08/22 06:37:50;;;;;;;2.88;2.15;;;20.10;85.10;;;;;;5992633;23;20183;-86
2023/08/22 06:40:22;;;;;;;2.50;2.30;;;20.10;85.10;;;;;;6041828;23;20134;-87
2023/08/22 06:42:49;;;;;;;3.05;2.55;;;20.10;85.20;;;;;;6040733;23;20153;-86
2023/08/22 06:45:14;;;;;;;3.38;2.40;;;20.10;85.20;;;;;;5983881;23;20611;-86
2023/08/22 06:48:02;;;;;;;2.70;2.47;;;20.10;85.20;;;;;;5963924;23;20166;-87
2023/08/22 06:50:37;;;;;;;2.20;2.00;;;20.10;85.30;;;;;;6035438;23;20165;-87
2023/08/22 06:53:03;;;;;;;2.28;2.08;;;20.10;85.30;;;;;;5988983;23;20179;-86
2023/08/22 06:55:49;;;;;;;2.70;2.50;;;20.10;85.40;;;;;;6012482;23;20241;-86
2023/08/22 06:58:37;;;;;;;2.80;2.42;;;20.10;85.40;;;;;;6012212;23;20611;-86
2023/08/22 07:01:15;;;;;;;2.58;2.05;;;20.10;85.40;;;;;;5946096;24;20152;-86
2023/08/22 07:03:44;;;;;;;2.40;2.20;;;20.10;85.50;;;;;;5967707;23;20150;-87
2023/08/22 07:06:15;;;;;;;2.20;2.00;;;20.10;85.60;;;;;;6012582;23;20150;-87
2023/08/22 07:08:48;;;;;;;2.63;2.42;;;20.10;85.60;;;;;;6013150;23;20274;-85
2023/08/22 07:11:17;;;;;;;2.70;2.50;;;20.00;85.60;;;;;;6016150;23;20164;-86
2023/08/22 07:13:46;;;;;;;3.05;2.42;;;20.00;85.60;;;;;;6000890;23;20666;-87
2023/08/22 07:16:30;;;;;;;2.70;2.45;;;20.10;85.80;;;;;;5985711;23;20190;-86
2023/08/22 07:18:56;;;;;;;2.63;2.42;;;20.00;85.70;;;;;;5986953;23;20238;-86
2023/08/22 07:21:24;;;;;;;2.60;2.40;;;20.00;85.70;;;;;;5986590;23;20198;-86
2023/08/22 07:23:58;;;;;;;2.60;2.40;;;20.00;85.80;;;;;;5986513;23;20162;-86
2023/08/22 07:26:29;;;;;;;2.50;2.30;;;20.00;85.80;;;;;;5989762;23;20249;-86
2023/08/22 07:29:08;;;;;;;2.83;2.35;;;20.00;85.90;;;;;;5942604;23;20162;-85
2023/08/22 07:31:34;;;;;;;2.40;2.20;;;20.00;85.90;;;;;;6049239;23;20200;-87
2023/08/22 07:33:59;;;;;;;2.70;2.20;;;20.00;85.90;;;;;;6071858;23;20160;-85
2023/08/22 07:36:25;;;;;;;2.40;2.20;;;20.00;85.80;;;;;;6072292;23;20589;-85
2023/08/22 07:38:51;;;;;;;3.13;2.80;;;20.00;85.90;;;;;;6072328;23;20152;-85
2023/08/22 07:41:17;;;;;;;2.20;2.00;;;20.10;86.00;;;;;;6081889;23;20591;-87
2023/08/22 07:43:47;;;;;;;2.25;2.05;;;20.00;86.10;;;;;;6114616;23;20193;-87
2023/08/22 07:46:16;;;;;;;2.60;2.40;;;20.00;86.20;;;;;;6193972;23;20162;-87
2023/08/22 07:48:44;;;;;;;2.72;2.40;;;20.00;86.30;;;;;;6145300;23;20153;-85
2023/08/22 07:51:12;;;;;;;2.45;2.25;;;20.00;86.40;;;;;;6171391;23;20240;-85
2023/08/22 07:53:40;;;;;;;2.45;2.10;;;20.00;86.30;;;;;;6145564;23;20164;-86
2023/08/22 07:56:06;;;;;;;2.47;2.28;;;20.00;86.30;;;;;;6170573;23;20195;-86
2023/08/22 07:58:31;;;;;;;2.50;2.30;;;20.00;86.30;;;;;;6172162;23;20488;-86
2023/08/22 08:00:57;;;;;;;2.55;2.35;;;20.00;86.40;;;;;;6171314;23;20153;-86
2023/08/22 08:03:27;;;;;;;2.50;2.30;;;20.00;86.50;;;;;;6195886;23;20224;-86
2023/08/22 08:05:56;;;;;;;2.25;2.00;;;20.00;86.50;;;;;;6195211;23;20215;-85
2023/08/22 08:08:28;;;;;;;3.15;2.30;;;20.10;86.50;;;;;;6195589;23;20591;-85
2023/08/22 08:10:55;;;;;;;2.30;2.10;;;20.10;86.50;;;;;;6170574;23;20152;-86
2023/08/22 08:13:21;;;;;;;3.05;2.28;;;20.00;86.40;;;;;;6144531;23;20383;-86
2023/08/22 08:15:50;;;;;;;3.08;2.40;;;20.10;86.40;;;;;;6170310;23;20137;-85
2023/08/22 08:18:37;;;;;;;2.45;2.25;;;20.20;86.30;;;;;;6168797;23;20480;-86
2023/08/22 08:21:04;;;;;;;2.47;2.28;;;20.10;86.40;;;;;;6164918;23;20569;-86
2023/08/22 08:23:33;;;;;;;3.20;2.25;;;20.10;86.30;;;;;;6170344;23;20214;-87
2023/08/22 08:26:18;;;;;;;2.47;2.20;;;20.10;86.40;;;;;;6148266;23;20601;-86
2023/08/22 08:28:45;;;;;;;2.50;2.30;;;20.10;86.50;;;;;;6143978;23;20159;-86
2023/08/22 08:31:16;;;;;;;2.42;2.22;;;20.10;86.70;;;;;;6183993;23;20159;-87
2023/08/22 08:33:45;;;;;;;2.63;2.20;;;20.10;86.60;;;;;;6185726;23;20174;-85
2023/08/22 08:36:13;;;;;;;4.43;2.47;;;20.10;86.40;;;;;;6100302;23;20179;-86
2023/08/22 08:38:43;;;;;;;3.83;2.45;;;20.20;86.60;;;;;;6076619;23;20656;-86
2023/08/22 08:41:08;;;;;;;2.97;2.35;;;20.20;86.70;;;;;;6106716;23;20176;-86
2023/08/22 08:43:40;;;;;;;2.40;2.20;;;20.10;86.70;;;;;;6083595;23;20160;-87
2023/08/22 08:46:09;;;;;;;3.05;2.30;;;20.20;86.70;;;;;;6109191;23;20977;-86
2023/08/22 08:48:37;;;;;;;2.58;2.38;;;20.20;86.70;;;;;;6079159;23;20156;-86
2023/08/22 08:51:09;;;;;;;3.58;2.45;;;20.20;86.70;;;;;;6015840;23;20161;-87
2023/08/22 08:53:43;;;;;;;2.30;2.10;;;20.20;86.80;;;;;;6037438;23;20229;-86
2023/08/22 08:56:21;;;;;;;2.85;2.53;;;20.20;86.90;;;;;;6037301;23;20181;-86
2023/08/22 08:58:54;;;;;;;2.72;2.20;;;20.20;86.90;;;;;;6014004;23;20574;-87
2023/08/22 09:01:20;;;;;;;2.42;2.22;;;20.20;86.90;;;;;;6045605;23;20180;-86
2023/08/22 09:04:12;;;;;;;2.45;2.25;;;20.20;86.80;;;;;;6070152;23;20159;-86
2023/08/22 09:06:38;;;;;;;2.40;2.20;;;20.30;86.90;;;;;;6101313;23;20247;-86
2023/08/22 09:09:17;;;;;;;2.10;1.90;;;20.20;86.80;;;;;;6123035;23;20527;-87
2023/08/22 09:11:44;;;;;;;2.55;2.20;;;20.20;86.80;;;;;;6094069;23;20161;-86
2023/08/22 09:14:17;;;;;;;2.47;2.13;;;20.30;86.90;;;;;;6041537;23;20201;-87
2023/08/22 09:16:52;;;;;;;2.80;2.28;;;20.30;86.90;;;;;;6008347;23;20269;-87
2023/08/22 09:19:29;;;;;;;3.15;2.25;;;20.30;86.90;;;;;;5957205;24;20159;-86
2023/08/22 09:22:54;;;;;;;2.47;2.10;;;20.30;87.00;;;;;;5985142;23;20154;-87
2023/08/22 09:25:07;;;;;;;2.50;2.30;;;20.30;87.00;;;;;;6027676;23;20517;-85
2023/08/22 09:27:33;;;;;;;3.03;2.40;;;20.30;86.90;;;;;;5925014;24;20164;-86
2023/08/22 09:30:06;;;;;;;2.40;2.20;;;20.30;86.90;;;;;;5875737;24;20169;-85
2023/08/22 09:32:34;;;;;;;2.38;2.17;;;20.40;86.90;;;;;;5870519;24;20185;-85
2023/08/22 09:35:02;;;;;;;2.20;2.00;;;20.30;86.70;;;;;;5848721;24;20712;-86
2023/08/22 09:37:35;;;;;;;2.30;2.10;;;20.30;87.50;;;;;;5847932;24;20223;-85
2023/08/22 09:40:16;;;;;;;2.85;2.17;;;20.40;86.70;;;;;;5816704;24;20247;-86
2023/08/22 09:42:42;;;;;;;2.30;2.10;;;20.40;86.60;;;;;;5794878;24;20159;-86
2023/08/22 09:45:13;;;;;;;2.85;2.03;;;20.40;86.50;;;;;;5795352;24;20163;-85
2023/08/22 09:47:42;;;;;;;2.40;2.20;;;20.40;86.40;;;;;;5794976;24;20167;-86
2023/08/22 09:50:09;;;;;;;2.30;2.10;;;20.40;86.40;;;;;;5794953;24;20178;-86
2023/08/22 09:52:43;;;;;;;2.20;2.00;;;20.40;86.30;;;;;;5795360;24;20167;-86
2023/08/22 09:55:10;;;;;;;2.78;2.25;;;20.40;86.30;;;;;;5871578;24;20165;-86
2023/08/22 09:57:36;;;;;;;2.75;2.15;;;20.40;86.10;;;;;;5888902;23;20877;-87
2023/08/22 10:00:04;;;;;;;3.38;2.30;;;20.40;86.20;;;;;;5993293;23;20159;-86
2023/08/22 10:02:36;;;;;;;2.40;2.20;;;20.40;86.10;;;;;;6029946;23;20167;-85
2023/08/22 10:05:04;;;;;;;2.55;2.35;;;20.40;86.20;;;;;;6128996;23;20162;-86
2023/08/22 10:07:37;;;;;;;2.30;2.10;;;20.40;86.20;;;;;;6032409;23;20162;-86
2023/08/22 10:10:11;;;;;;;3.10;2.55;;;20.40;86.10;;;;;;6075358;23;20183;-86
2023/08/22 10:12:39;;;;;;;2.38;2.17;;;20.50;86.20;;;;;;6077488;23;20698;-86
2023/08/22 10:15:09;;;;;;;3.28;2.03;;;20.50;87.00;;;;;;6130004;23;20186;-86
2023/08/22 10:17:40;;;;;;;2.47;2.10;;;20.50;86.20;;;;;;6105542;23;20261;-86
2023/08/22 10:20:30;;;;;;;2.45;2.25;;;20.40;86.20;;;;;;6104461;23;20690;-87
2023/08/22 10:23:05;;;;;;;2.70;2.20;;;20.50;86.20;;;;;;6074126;23;20527;-86
2023/08/22 10:25:52;;;;;;;3.25;2.08;;;20.50;86.00;;;;;;6073879;23;20636;-86
2023/08/22 10:29:03;;;;;;;2.38;2.17;;;20.50;86.00;;;;;;6100079;23;20144;-86
2023/08/22 10:31:07;;;;;;;3.47;2.08;;;20.50;86.10;;;;;;6071100;23;20152;-86
2023/08/22 10:33:37;;;;;;;2.97;2.17;;;20.50;85.90;;;;;;6050112;23;20148;-85
2023/08/22 10:36:23;;;;;;;2.30;2.10;;;20.60;85.70;;;;;;6025669;23;20540;-85
2023/08/22 10:39:00;;;;;;;3.13;1.95;;;20.60;85.70;;;;;;6102092;23;20199;-86
2023/08/22 10:41:58;;;;;;;2.45;2.00;;;20.60;85.70;;;;;;6018971;23;20207;-86
2023/08/22 10:44:26;;;;;;;2.38;2.17;;;20.60;85.60;;;;;;6035798;23;20215;-86
2023/08/22 10:47:10;;;;;;;2.85;2.40;;;20.60;85.60;;;;;;6108777;23;20163;-86
2023/08/22 10:49:39;;;;;;;2.40;2.20;;;20.70;85.80;;;;;;6054292;23;20156;-86
2023/08/22 10:52:13;;;;;;;2.33;2.13;;;20.60;85.70;;;;;;6099207;23;20167;-86
2023/08/22 10:55:09;;;;;;;2.22;2.03;;;20.60;85.70;;;;;;6015994;23;20169;-87
2023/08/22 10:57:49;;;;;;;2.47;2.28;;;20.60;85.70;;;;;;6014249;23;20205;-87
2023/08/22 11:00:34;;;;;;;2.30;2.08;;;20.60;85.70;;;;;;6009380;23;20154;-86
2023/08/22 11:03:20;;;;;;;2.30;2.10;;;20.60;85.80;;;;;;5982821;23;20245;-88
2023/08/22 11:05:55;;;;;;;2.90;2.30;;;20.60;85.90;;;;;;6008259;23;20518;-86
2023/08/22 11:08:30;;;;;;;2.75;2.40;;;20.60;85.90;;;;;;5986751;23;20161;-87
2023/08/22 11:10:57;;;;;;;2.75;2.15;;;20.60;85.80;;;;;;5986538;23;20237;-85
2023/08/22 11:13:58;;;;;;;3.28;2.40;;;20.60;85.80;;;;;;6000884;23;20233;-86
2023/08/22 11:16:26;;;;;;;2.13;1.90;;;20.60;85.90;;;;;;6091901;23;20277;-86
2023/08/22 11:18:52;;;;;;;2.67;2.20;;;20.70;86.00;;;;;;6073456;23;20156;-86
2023/08/22 11:21:26;;;;;;;2.78;2.28;;;20.70;85.70;;;;;;6052678;23;20179;-87
2023/08/22 11:23:54;;;;;;;2.92;2.47;;;20.70;85.80;;;;;;6071305;23;20183;-87
2023/08/22 11:26:25;;;;;;;2.42;2.20;;;20.70;85.80;;;;;;6048279;23;20164;-87
2023/08/22 11:28:51;;;;;;;2.63;2.42;;;20.70;85.70;;;;;;6048850;23;20164;-87
2023/08/22 11:31:30;;;;;;;2.20;1.85;;;20.70;85.80;;;;;;6071558;23;20648;-87
2023/08/22 11:33:58;;;;;;;2.97;2.40;;;20.60;85.80;;;;;;6075435;23;20306;-87
2023/08/22 11:36:30;;;;;;;2.80;2.20;;;20.70;85.80;;;;;;6049318;23;20200;-86
2023/08/22 11:38:56;;;;;;;2.45;2.25;;;20.70;85.70;;;;;;6087565;23;20179;-87
2023/08/22 11:41:22;;;;;;;3.25;2.50;;;20.70;85.50;;;;;;6071690;23;20641;-86
2023/08/22 11:43:51;;;;;;;2.63;2.13;;;20.70;85.60;;;;;;6047886;23;20596;-87
2023/08/22 11:46:20;;;;;;;2.30;2.08;;;20.70;85.60;;;;;;6072419;23;20145;-86
2023/08/22 11:48:46;;;;;;;2.33;2.13;;;20.70;85.60;;;;;;6045799;23;20164;-86
2023/08/22 11:51:20;;;;;;;2.28;2.08;;;20.70;85.60;;;;;;6047729;23;20620;-87
2023/08/22 11:53:49;;;;;;;2.55;2.30;;;20.70;85.70;;;;;;6056042;23;20617;-86
2023/08/22 11:56:15;;;;;;;2.53;2.33;;;20.70;85.60;;;;;;6135777;23;20719;-86
2023/08/22 11:58:50;;;;;;;2.40;2.20;;;20.70;85.60;;;;;;6136217;23;20181;-85
2023/08/22 12:01:19;;;;;;;2.50;2.10;;;20.80;85.80;;;;;;6113870;23;20584;-87
2023/08/22 12:03:54;;;;;;;2.55;2.20;;;20.70;86.40;;;;;;6086561;23;20146;-86
2023/08/22 12:06:21;;;;;;;2.45;2.25;;;20.70;85.40;;;;;;6111723;23;20196;-86
2023/08/22 12:08:56;;;;;;;2.40;2.17;;;20.80;85.50;;;;;;6104462;23;20607;-86
2023/08/22 12:11:29;;;;;;;2.53;2.13;;;20.80;85.50;;;;;;6169864;23;20136;-87
2023/08/22 12:13:56;;;;;;;4.88;2.08;;;20.80;85.50;;;;;;6124117;23;20286;-87
2023/08/22 12:16:23;;;;;;;2.53;2.30;;;20.80;85.40;;;;;;6194362;23;20173;-87
2023/08/22 12:18:51;;;;;;;4.22;2.20;;;20.80;85.40;;;;;;6169762;23;20218;-87
2023/08/22 12:21:17;;;;;;;7.72;2.22;;;20.70;85.30;;;;;;6194998;23;20611;-86
2023/08/22 12:23:44;;;;;;;2.90;2.00;;;20.80;85.40;;;;;;6144776;23;20142;-86
2023/08/22 12:26:10;;;;;;;4.90;2.45;;;20.80;85.20;;;;;;6169641;23;20155;-87
2023/08/22 12:28:36;;;;;;;4.47;2.20;;;20.80;85.10;;;;;;6169397;23;20140;-86
2023/08/22 12:31:02;;;;;;;2.75;2.25;;;20.90;85.10;;;;;;6193814;23;20157;-87
2023/08/22 12:33:28;;;;;;;3.38;2.25;;;20.90;84.90;;;;;;6169075;23;20231;-86
2023/08/22 12:35:53;;;;;;;4.20;2.30;;;20.80;84.80;;;;;;6169194;23;20156;-86
2023/08/22 12:38:20;;;;;;;3.38;2.22;;;20.90;84.80;;;;;;6092895;23;20168;-86
2023/08/22 12:40:45;;;;;;;3.45;2.20;;;20.90;84.70;;;;;;6144668;23;20581;-85
2023/08/22 12:43:11;;;;;;;4.78;2.10;;;20.90;84.70;;;;;;6194586;23;20203;-87
2023/08/22 12:45:37;;;;;;;3.50;2.10;;;20.80;84.90;;;;;;6194535;23;20133;-86
2023/08/22 12:48:07;;;;;;;3.28;2.05;;;20.80;85.00;;;;;;6144912;23;20623;-85
2023/08/22 12:50:34;;;;;;;4.35;2.10;;;20.80;85.10;;;;;;6143600;23;20164;-86
2023/08/22 12:53:00;;;;;;;3.58;2.20;;;20.70;85.20;;;;;;6144463;23;20167;-85
2023/08/22 12:55:25;;;;;;;3.35;2.10;;;20.70;85.30;;;;;;6168810;23;20176;-86
2023/08/22 12:57:51;;;;;;;2.75;2.08;;;20.70;85.40;;;;;;6194165;23;20184;-86
2023/08/22 13:00:19;;;;;;;4.00;2.25;;;20.70;85.50;;;;;;6193992;23;20182;-85
2023/08/22 13:02:45;;;;;;;3.97;2.10;;;20.70;85.70;;;;;;6194353;23;20126;-86
2023/08/22 13:05:13;;;;;;;3.58;2.53;;;20.70;85.70;;;;;;6169356;23;20271;-88
2023/08/22 13:07:39;;;;;;;3.45;2.13;;;20.70;85.70;;;;;;6168990;23;20687;-85
2023/08/22 13:10:05;;;;;;;3.10;2.13;;;20.60;85.60;;;;;;6145213;23;20176;-87